»·PEaware :: N733TR KFHR-KGEG

N733TR :: KFHR-KGEG

FLIGHT INFORMATION

Flight Status: Arrived
Operator: Privately registered:
United States
More flights under this callsign
Pilot: Jonathan B. (787)
Aircraft: ECLIPSE 500
(EA50)
More flights by this aircraft type
Origin: KFHR Friday Harbor
United States
Destination: KGEG Spokane Intl
United States
More flights between these airports :: More routes between these airports
Route: +
File this flight plan on PilotEdge
Remarks: wa alphabet
Altitude:
(Current/Filed)
21,000ft
Speed:
(Current/Filed)
290kts
Departed: 12-Aug-20 07:04 PM
Arrived: 12-Aug-20 07:56 PM
Distance/Time
Traveled:
227nm/0:51
Distance/Time
To Go:
Arrived

Flight Plot

Page will automatically refresh every two minutes.

Flight plan parsing failed; only flown route is shown


Map Options




Map Legend


Flown Route
Filed Route
Departure Airport
Arrival Airport
Navaid (VOR, NDB)
Fix

Horizontal Profiles

Position Reports

Time Latitude Longitude Heading Altitude Ground
Speed
12-Aug-20 18:49 48.522053 -123.025405 266 115ft 0kts
12-Aug-20 18:50 48.522053 -123.025405 266 115ft 0kts
12-Aug-20 18:51 48.522053 -123.025405 266 115ft 0kts
12-Aug-20 18:52 48.522053 -123.025405 266 115ft 0kts
12-Aug-20 18:56 48.522053 -123.025405 266 115ft 0kts
12-Aug-20 18:57 48.522053 -123.025405 266 115ft 0kts
12-Aug-20 18:58 48.522053 -123.025405 266 115ft 0kts
12-Aug-20 18:59 48.522005 -123.025740 250 115ft 2kts
12-Aug-20 19:00 48.521999 -123.025766 248 115ft 0kts
12-Aug-20 19:01 48.520025 -123.024850 176 115ft 12kts
12-Aug-20 19:02 48.517432 -123.024635 159 115ft 2kts
12-Aug-20 19:03 48.529510 -123.023353 10 596ft 118kts
12-Aug-20 19:04 48.561178 -122.988738 64 3302ft 166kts
12-Aug-20 19:05 48.575368 -122.917662 92 6371ft 185kts
12-Aug-20 19:06 48.564598 -122.844412 101 9655ft 166kts
12-Aug-20 19:07 48.553911 -122.777324 100 12061ft 162kts
12-Aug-20 19:08 48.540589 -122.712847 105 14107ft 162kts
12-Aug-20 19:09 48.528096 -122.626825 99 15110ft 236kts
12-Aug-20 19:10 48.515217 -122.532607 100 16873ft 250kts
12-Aug-20 19:11 48.499499 -122.428110 101 18288ft 276kts
12-Aug-20 19:12 48.480829 -122.307705 102 18636ft 327kts
12-Aug-20 19:13 48.457911 -122.162313 102 17826ft 377kts
12-Aug-20 19:14 48.433447 -122.008802 102 17685ft 373kts
12-Aug-20 19:15 48.411004 -121.869098 102 17495ft 322kts
12-Aug-20 19:16 48.390678 -121.743597 102 17490ft 298kts
12-Aug-20 19:17 48.371266 -121.624546 102 17491ft 288kts
12-Aug-20 19:18 48.352266 -121.508871 102 17492ft 284kts
12-Aug-20 19:19 48.332886 -121.391616 102 17494ft 302kts
12-Aug-20 19:20 48.312639 -121.270019 103 17491ft 318kts
12-Aug-20 19:21 48.291453 -121.143677 103 17480ft 335kts
12-Aug-20 19:22 48.268226 -121.006206 104 17425ft 344kts
12-Aug-20 19:23 48.244280 -120.865899 104 17362ft 348kts
12-Aug-20 19:24 48.220002 -120.724672 104 17322ft 349kts
12-Aug-20 19:25 48.195642 -120.584035 104 17318ft 349kts
12-Aug-20 19:26 48.171016 -120.442992 104 17318ft 349kts
12-Aug-20 19:27 48.146536 -120.303856 105 17434ft 345kts
12-Aug-20 19:28 48.121874 -120.164823 105 17458ft 347kts
12-Aug-20 19:29 48.096899 -120.025085 105 17449ft 348kts
12-Aug-20 19:31 48.071711 -119.885238 105 16908ft 346kts
12-Aug-20 19:32 48.046506 -119.746318 105 15413ft 347kts
12-Aug-20 19:33 48.021165 -119.607743 105 13923ft 346kts
12-Aug-20 19:34 47.995740 -119.469754 105 12430ft 343kts
12-Aug-20 19:35 47.970712 -119.334760 106 10974ft 339kts
12-Aug-20 19:36 47.945888 -119.202027 106 9987ft 327kts
12-Aug-20 19:37 47.921437 -119.072197 107 8980ft 323kts
12-Aug-20 19:38 47.897052 -118.943573 107 7972ft 320kts
12-Aug-20 19:39 47.872650 -118.815803 107 7713ft 321kts
12-Aug-20 19:40 47.848167 -118.688424 107 7476ft 310kts
12-Aug-20 19:41 47.825043 -118.568898 107 5618ft 292kts
12-Aug-20 19:42 47.801435 -118.447703 107 5810ft 309kts
12-Aug-20 19:43 47.778982 -118.332915 108 5548ft 272kts
12-Aug-20 19:44 47.759106 -118.231892 108 5553ft 243kts
12-Aug-20 19:45 47.738088 -118.125896 108 5494ft 284kts
12-Aug-20 19:46 47.717443 -118.022011 108 4962ft 228kts
12-Aug-20 19:47 47.701616 -117.942860 109 3946ft 186kts
12-Aug-20 19:48 47.687366 -117.871962 109 3490ft 167kts
12-Aug-20 19:48 47.676823 -117.819623 110 3487ft 151kts
12-Aug-20 19:50 47.663428 -117.753361 110 3491ft 138kts
12-Aug-20 19:50 47.659068 -117.700939 96 3725ft 172kts
12-Aug-20 19:51 47.662205 -117.633687 88 4325ft 162kts
12-Aug-20 19:52 47.668434 -117.568089 81 3764ft 161kts
12-Aug-20 19:53 47.657069 -117.515304 138 3401ft 115kts
12-Aug-20 19:54 47.632917 -117.515730 223 2496ft 109kts
12-Aug-20 19:55 47.621235 -117.532603 153 2387ft 9kts
12-Aug-20 19:56 47.618399 -117.534047 220 2387ft 8kts
12-Aug-20 19:57 47.617869 -117.532973 97 2387ft 29kts
12-Aug-20 19:58 47.618661 -117.526115 1 2387ft 0kts

Navigation Log

Ident Type
Flight plan parsing failed, navigation log unavailable